createdAt,value
2019-01-30T00:00:21.332Z,8.60
2019-01-30T00:02:49.783Z,7.55
2019-01-30T00:05:18.226Z,7.92
2019-01-30T00:07:46.749Z,8.60
2019-01-30T00:10:15.230Z,7.10
2019-01-30T00:12:43.711Z,9.00
2019-01-30T00:15:12.921Z,8.20
2019-01-30T00:17:41.375Z,9.08
2019-01-30T00:20:11.518Z,8.20
2019-01-30T00:22:40.001Z,8.53
2019-01-30T00:25:09.844Z,8.73
2019-01-30T00:27:38.296Z,8.40
2019-01-30T00:30:10.972Z,8.53
2019-01-30T00:32:39.427Z,9.05
2019-01-30T00:35:09.589Z,9.98
2019-01-30T00:37:38.762Z,9.98
2019-01-30T00:40:08.779Z,8.55
2019-01-30T00:42:37.215Z,9.10
2019-01-30T00:45:07.282Z,9.60
2019-01-30T00:47:35.742Z,9.43
2019-01-30T00:50:05.698Z,9.63
2019-01-30T00:52:34.170Z,10.40
2019-01-30T00:55:02.614Z,9.15
2019-01-30T00:57:31.071Z,9.60
2019-01-30T00:59:59.571Z,9.00
2019-01-30T01:02:28.017Z,9.58
2019-01-30T01:04:56.467Z,9.10
2019-01-30T01:07:24.947Z,9.75
2019-01-30T01:09:53.398Z,8.90
2019-01-30T01:12:21.843Z,9.65
2019-01-30T01:14:50.382Z,8.33
2019-01-30T01:17:18.781Z,8.80
2019-01-30T01:19:47.242Z,8.78
2019-01-30T01:22:15.825Z,9.43
2019-01-30T01:24:44.330Z,8.40
2019-01-30T01:27:12.824Z,9.53
2019-01-30T01:29:41.372Z,8.85
2019-01-30T01:32:09.876Z,9.05
2019-01-30T01:34:38.333Z,8.95
2019-01-30T01:37:06.832Z,11.05
2019-01-30T01:39:35.293Z,9.10
2019-01-30T01:42:03.745Z,9.13
2019-01-30T01:44:32.252Z,9.10
2019-01-30T01:47:00.695Z,8.73
2019-01-30T01:49:29.149Z,8.85
2019-01-30T01:51:57.702Z,9.20
2019-01-30T01:54:26.286Z,8.85
2019-01-30T01:56:54.734Z,9.98
2019-01-30T01:59:23.229Z,9.00
2019-01-30T02:01:51.727Z,10.43
2019-01-30T02:04:20.182Z,10.28
2019-01-30T02:06:48.720Z,9.05
2019-01-30T02:09:17.210Z,9.28
2019-01-30T02:11:45.761Z,9.60
2019-01-30T02:14:14.252Z,8.10
2019-01-30T02:16:42.715Z,8.65
2019-01-30T02:19:11.193Z,9.20
2019-01-30T02:21:39.639Z,9.43
2019-01-30T02:24:08.095Z,9.60
2019-01-30T02:26:36.599Z,9.00
2019-01-30T02:29:05.039Z,8.40
2019-01-30T02:31:33.496Z,8.83
2019-01-30T02:34:04.082Z,8.23
2019-01-30T02:36:35.071Z,8.25
2019-01-30T02:39:11.483Z,9.60
2019-01-30T02:41:40.592Z,9.18
2019-01-30T02:44:09.039Z,8.10
2019-01-30T02:46:37.520Z,9.43
2019-01-30T02:49:06.079Z,8.40
2019-01-30T02:51:34.665Z,8.73
2019-01-30T02:54:03.128Z,8.48
2019-01-30T02:56:31.618Z,8.58
2019-01-30T02:59:00.107Z,11.43
2019-01-30T03:01:28.586Z,12.95
2019-01-30T03:03:57.170Z,13.60
2019-01-30T03:06:25.587Z,11.80
2019-01-30T03:08:54.237Z,9.88
2019-01-30T03:11:22.820Z,9.10
2019-01-30T03:13:51.311Z,10.65
2019-01-30T03:16:19.778Z,10.63
2019-01-30T03:18:48.365Z,10.90
2019-01-30T03:21:16.845Z,12.45
2019-01-30T03:23:45.312Z,10.80
2019-01-30T03:26:13.762Z,9.35
2019-01-30T03:28:42.287Z,8.78
2019-01-30T03:31:17.820Z,9.10
2019-01-30T03:33:40.995Z,8.30
2019-01-30T03:36:09.469Z,8.18
2019-01-30T03:38:38.055Z,6.42
2019-01-30T03:41:06.606Z,6.67
2019-01-30T03:43:35.059Z,6.60
2019-01-30T03:46:03.603Z,5.90
2019-01-30T03:48:32.097Z,5.00
2019-01-30T03:51:00.666Z,5.25
2019-01-30T03:53:29.151Z,5.45
2019-01-30T03:55:57.582Z,5.55
2019-01-30T03:58:26.045Z,5.37
2019-01-30T04:00:54.527Z,4.50
2019-01-30T04:03:23.071Z,4.95
2019-01-30T04:05:51.552Z,5.37
2019-01-30T04:08:20.023Z,5.45
2019-01-30T04:10:48.510Z,4.70
2019-01-30T04:13:17.016Z,5.50
2019-01-30T04:15:46.769Z,4.75
2019-01-30T04:18:15.224Z,6.15
2019-01-30T04:20:43.770Z,5.60
2019-01-30T04:23:12.257Z,4.87
2019-01-30T04:25:40.703Z,4.67
2019-01-30T04:28:09.183Z,4.87
2019-01-30T04:30:56.939Z,4.75
2019-01-30T04:33:25.427Z,5.47
2019-01-30T04:35:53.836Z,4.65
2019-01-30T04:38:22.329Z,5.17
2019-01-30T04:40:50.766Z,5.03
2019-01-30T04:43:19.213Z,5.15
2019-01-30T04:45:47.694Z,5.35
2019-01-30T04:48:16.148Z,4.50
2019-01-30T04:50:44.595Z,4.85
2019-01-30T04:53:13.075Z,5.15
2019-01-30T04:55:41.522Z,5.87
2019-01-30T04:58:09.976Z,4.87
2019-01-30T05:00:38.462Z,6.08
2019-01-30T05:03:06.912Z,5.50
2019-01-30T05:05:35.478Z,5.15
2019-01-30T05:08:04.659Z,4.67
2019-01-30T05:10:33.104Z,5.35
2019-01-30T05:13:01.551Z,5.40
2019-01-30T05:15:30.041Z,6.03
2019-01-30T05:17:58.492Z,6.00
2019-01-30T05:20:26.934Z,5.87
2019-01-30T05:22:55.438Z,7.97
2019-01-30T05:25:23.891Z,8.05
2019-01-30T05:27:52.350Z,10.80
2019-01-30T05:30:22.298Z,7.62
2019-01-30T05:32:50.752Z,8.45
2019-01-30T05:35:19.304Z,9.18
2019-01-30T05:37:50.862Z,7.85
2019-01-30T05:40:19.335Z,8.20
2019-01-30T05:42:47.871Z,9.23
2019-01-30T05:45:17.014Z,8.00
2019-01-30T05:47:45.595Z,8.85
2019-01-30T05:50:15.400Z,9.23
2019-01-30T05:52:44.512Z,8.38
2019-01-30T05:55:14.559Z,9.48
2019-01-30T05:57:43.061Z,10.55
2019-01-30T06:00:13.018Z,9.40
2019-01-30T06:02:41.430Z,11.70
2019-01-30T06:05:10.799Z,11.08
2019-01-30T06:07:39.279Z,12.35
2019-01-30T06:10:09.141Z,13.05
2019-01-30T06:12:37.727Z,12.20
2019-01-30T06:15:07.645Z,11.70
2019-01-30T06:17:36.282Z,13.38
2019-01-30T06:20:06.880Z,13.70
2019-01-30T06:22:35.347Z,12.37
2019-01-30T06:25:04.997Z,14.00
2019-01-30T06:27:33.496Z,13.40
2019-01-30T06:30:02.062Z,12.58
2019-01-30T06:32:30.542Z,14.80
2019-01-30T06:34:59.016Z,14.18
2019-01-30T06:37:27.505Z,14.13
2019-01-30T06:39:55.924Z,12.60
2019-01-30T06:42:24.467Z,16.23
2019-01-30T06:44:52.879Z,16.90
2019-01-30T06:47:21.328Z,16.00
2019-01-30T06:49:49.911Z,16.35
2019-01-30T06:52:18.393Z,17.10
2019-01-30T06:54:46.834Z,16.37
2019-01-30T06:57:15.355Z,15.45
2019-01-30T06:59:43.841Z,16.02
2019-01-30T07:02:12.244Z,16.52
2019-01-30T07:04:40.735Z,17.12
2019-01-30T07:07:09.278Z,17.70
2019-01-30T07:09:37.960Z,18.27
2019-01-30T07:12:06.463Z,18.15
2019-01-30T07:14:35.029Z,16.87
2019-01-30T07:17:03.474Z,16.57
2019-01-30T07:19:31.962Z,18.05
2019-01-30T07:22:00.472Z,20.95
2019-01-30T07:24:28.954Z,18.20
2019-01-30T07:26:57.472Z,17.50
2019-01-30T07:29:26.018Z,18.45
2019-01-30T07:31:54.494Z,18.48
2019-01-30T07:34:23.082Z,18.60
2019-01-30T07:36:51.543Z,16.67
2019-01-30T07:39:19.998Z,17.57
2019-01-30T07:41:48.525Z,17.50
2019-01-30T07:44:16.947Z,18.60
2019-01-30T07:46:45.728Z,18.82
2019-01-30T07:49:14.208Z,17.60
2019-01-30T07:51:43.643Z,18.12
2019-01-30T07:54:12.160Z,17.70
2019-01-30T07:56:40.715Z,19.87
2019-01-30T07:59:09.419Z,17.77
2019-01-30T08:01:37.935Z,18.30
2019-01-30T08:04:06.396Z,16.97
2019-01-30T08:06:34.975Z,19.25
2019-01-30T08:09:05.016Z,19.70
2019-01-30T08:11:46.079Z,18.57
2019-01-30T08:14:14.652Z,18.32
2019-01-30T08:16:43.542Z,18.90
2019-01-30T08:19:11.987Z,16.87
2019-01-30T08:21:40.483Z,17.80
2019-01-30T08:24:08.983Z,17.45
2019-01-30T08:26:37.471Z,16.90
2019-01-30T08:29:06.559Z,16.60
2019-01-30T08:31:35.767Z,18.35
2019-01-30T08:34:05.153Z,17.20
2019-01-30T08:36:33.618Z,16.20
2019-01-30T08:39:03.005Z,15.63
2019-01-30T08:41:31.529Z,15.93
2019-01-30T08:44:00.112Z,17.50
2019-01-30T08:46:28.695Z,16.30
2019-01-30T08:48:57.569Z,15.83
2019-01-30T08:51:26.480Z,16.60
2019-01-30T08:53:55.369Z,16.00
2019-01-30T08:56:24.297Z,15.90
2019-01-30T08:58:53.266Z,16.20
2019-01-30T09:01:22.245Z,16.50
2019-01-30T09:03:51.135Z,17.43
2019-01-30T09:06:20.769Z,16.83
2019-01-30T09:08:49.741Z,17.10
2019-01-30T09:11:18.177Z,16.13
2019-01-30T09:13:47.023Z,17.50
2019-01-30T09:16:15.998Z,16.20
2019-01-30T09:18:44.890Z,16.70
2019-01-30T09:21:13.780Z,16.23
2019-01-30T09:23:42.699Z,16.20
2019-01-30T09:26:11.665Z,16.70
2019-01-30T09:28:40.556Z,18.27
2019-01-30T09:31:09.478Z,17.53
2019-01-30T09:33:38.445Z,17.93
2019-01-30T09:36:07.432Z,17.67
2019-01-30T09:38:36.334Z,18.03
2019-01-30T09:41:05.421Z,17.67
2019-01-30T09:43:34.412Z,17.10
2019-01-30T09:46:03.302Z,17.13
2019-01-30T09:48:32.295Z,16.33
2019-01-30T09:51:01.290Z,15.43
2019-01-30T09:53:30.210Z,16.73
2019-01-30T09:55:59.175Z,16.37
2019-01-30T09:58:28.084Z,17.27
2019-01-30T10:00:57.056Z,16.90
2019-01-30T10:03:35.794Z,15.30
2019-01-30T10:05:56.475Z,17.20
2019-01-30T10:08:25.469Z,15.53
2019-01-30T10:10:54.540Z,15.00
2019-01-30T10:13:24.113Z,16.03
2019-01-30T10:15:53.170Z,15.73
2019-01-30T10:18:22.048Z,16.80
2019-01-30T10:20:50.946Z,15.33
2019-01-30T10:23:19.837Z,15.90
2019-01-30T10:25:48.735Z,38.90
2019-01-30T10:28:17.322Z,17.07
2019-01-30T10:30:48.003Z,17.07
2019-01-30T10:33:16.751Z,16.50
2019-01-30T10:35:46.017Z,16.07
2019-01-30T10:38:15.804Z,16.40
2019-01-30T10:40:44.242Z,17.10
2019-01-30T10:43:13.508Z,16.53
2019-01-30T10:45:42.109Z,17.00
2019-01-30T10:48:10.756Z,18.17
2019-01-30T10:50:39.686Z,16.57
2019-01-30T10:53:08.223Z,19.85
2019-01-30T10:55:38.079Z,19.00
2019-01-30T10:58:10.199Z,19.35
2019-01-30T11:00:45.486Z,17.92
2019-01-30T11:03:14.378Z,19.27
2019-01-30T11:05:44.395Z,19.32
2019-01-30T11:08:13.593Z,19.37
2019-01-30T11:10:43.099Z,20.77
2019-01-30T11:13:11.937Z,19.98
2019-01-30T11:15:41.621Z,20.20
2019-01-30T11:18:12.263Z,20.23
2019-01-30T11:20:41.107Z,20.25
2019-01-30T11:23:10.111Z,19.45
2019-01-30T11:25:40.127Z,19.23
2019-01-30T11:28:09.432Z,20.12
2019-01-30T11:30:37.876Z,19.82
2019-01-30T11:33:06.474Z,20.15
2019-01-30T11:35:35.632Z,19.42
2019-01-30T11:38:05.178Z,20.85
2019-01-30T11:40:33.779Z,19.55
2019-01-30T11:43:02.226Z,19.62
2019-01-30T11:45:35.145Z,20.55
2019-01-30T11:48:03.832Z,20.72
2019-01-30T11:50:32.287Z,19.42
2019-01-30T11:53:00.792Z,19.50
2019-01-30T11:55:29.274Z,21.00
2019-01-30T11:57:57.715Z,18.80
2019-01-30T12:00:44.465Z,20.27
2019-01-30T12:03:32.220Z,19.48
2019-01-30T12:06:00.780Z,20.95
2019-01-30T12:08:29.274Z,18.55
2019-01-30T12:10:57.844Z,21.20
2019-01-30T12:13:26.368Z,19.80
2019-01-30T12:15:54.909Z,18.02
2019-01-30T12:18:23.391Z,19.10
2019-01-30T12:20:52.109Z,18.15
2019-01-30T12:23:21.931Z,20.57
2019-01-30T12:25:50.383Z,20.72
2019-01-30T12:28:18.953Z,19.70
2019-01-30T12:30:47.445Z,18.75
2019-01-30T12:33:15.905Z,18.80
2019-01-30T12:35:44.501Z,18.17
2019-01-30T12:38:12.948Z,20.68
2019-01-30T12:40:41.409Z,19.80
2019-01-30T12:43:09.942Z,18.32
2019-01-30T12:45:38.424Z,21.95
2019-01-30T12:48:07.316Z,21.57
2019-01-30T12:50:35.831Z,21.42
2019-01-30T12:53:04.380Z,18.98
2019-01-30T12:55:32.861Z,17.37
2019-01-30T12:58:01.347Z,17.60
2019-01-30T13:00:36.811Z,32.90
2019-01-30T13:03:05.406Z,35.88
2019-01-30T13:05:33.952Z,20.90
2019-01-30T13:08:02.429Z,17.85
2019-01-30T13:10:31.019Z,18.10
2019-01-30T13:12:59.498Z,18.32
2019-01-30T13:15:29.125Z,20.00
2019-01-30T13:17:57.813Z,19.80
2019-01-30T13:20:26.376Z,28.47
2019-01-30T13:22:54.863Z,30.05
2019-01-30T13:25:24.976Z,25.30
2019-01-30T13:27:53.461Z,21.05
2019-01-30T13:30:26.447Z,18.82
2019-01-30T13:32:54.909Z,18.98
2019-01-30T13:35:23.354Z,26.48
2019-01-30T13:37:51.798Z,53.92
2019-01-30T13:40:21.784Z,21.95
2019-01-30T13:42:50.235Z,22.32
2019-01-30T13:45:18.868Z,21.82
2019-01-30T13:47:47.360Z,38.55
2019-01-30T13:50:17.311Z,22.32
2019-01-30T13:52:45.849Z,21.12
2019-01-30T13:55:15.348Z,22.10
2019-01-30T13:57:43.798Z,21.00
2019-01-30T14:00:13.732Z,22.98
2019-01-30T14:02:42.175Z,22.87
2019-01-30T14:05:10.813Z,24.30
2019-01-30T14:07:39.328Z,24.77
2019-01-30T14:10:09.233Z,25.30
2019-01-30T14:12:37.754Z,26.05
2019-01-30T14:15:07.809Z,25.80
2019-01-30T14:17:36.218Z,26.80
2019-01-30T14:20:06.163Z,27.32
2019-01-30T14:22:34.619Z,25.75
2019-01-30T14:25:04.430Z,24.18
2019-01-30T14:27:32.979Z,25.90
2019-01-30T14:30:01.480Z,26.37
2019-01-30T14:32:29.995Z,25.30
2019-01-30T14:35:09.626Z,27.95
2019-01-30T14:37:29.428Z,28.23
2019-01-30T14:39:58.355Z,26.52
2019-01-30T14:42:27.251Z,25.12
2019-01-30T14:44:55.759Z,27.02
2019-01-30T14:47:24.230Z,25.82
2019-01-30T14:49:52.690Z,26.82
2019-01-30T14:52:21.119Z,26.37
2019-01-30T14:54:49.668Z,26.80
2019-01-30T14:57:18.194Z,25.70
2019-01-30T14:59:46.626Z,26.50
2019-01-30T15:02:15.202Z,27.02
2019-01-30T15:04:43.828Z,23.85
2019-01-30T15:07:12.351Z,22.42
2019-01-30T15:09:40.844Z,23.30
2019-01-30T15:12:09.294Z,21.60
2019-01-30T15:14:37.806Z,22.32
2019-01-30T15:17:06.288Z,22.05
2019-01-30T15:19:34.764Z,21.45
2019-01-30T15:22:03.251Z,22.80
2019-01-30T15:24:31.712Z,22.50
2019-01-30T15:27:00.160Z,24.05
2019-01-30T15:29:28.693Z,22.22
2019-01-30T15:31:57.103Z,22.40
2019-01-30T15:34:25.554Z,22.90
2019-01-30T15:36:54.052Z,24.85
2019-01-30T15:39:22.617Z,24.40
2019-01-30T15:41:51.066Z,24.30
2019-01-30T15:44:19.559Z,27.10
2019-01-30T15:46:48.079Z,24.05
2019-01-30T15:49:16.539Z,24.45
2019-01-30T15:51:45.043Z,23.00
2019-01-30T15:54:13.491Z,23.00
2019-01-30T15:56:41.985Z,24.90
2019-01-30T15:59:10.467Z,23.80
2019-01-30T16:01:38.951Z,23.52
2019-01-30T16:04:07.445Z,24.63
2019-01-30T16:06:37.811Z,22.50
2019-01-30T16:09:07.299Z,22.52
2019-01-30T16:11:35.744Z,23.62
2019-01-30T16:14:05.091Z,23.83
2019-01-30T16:16:33.592Z,23.15
2019-01-30T16:19:02.046Z,26.33
2019-01-30T16:21:30.588Z,25.05
2019-01-30T16:23:58.996Z,25.25
2019-01-30T16:26:27.444Z,25.88
2019-01-30T16:28:55.936Z,26.30
2019-01-30T16:31:24.510Z,25.35
2019-01-30T16:33:52.986Z,25.32
2019-01-30T16:36:21.437Z,24.45
2019-01-30T16:38:49.955Z,27.17
2019-01-30T16:41:18.390Z,25.60
2019-01-30T16:43:47.253Z,26.17
2019-01-30T16:46:16.217Z,26.55
2019-01-30T16:48:45.142Z,26.87
2019-01-30T16:51:13.955Z,25.68
2019-01-30T16:53:42.888Z,26.95
2019-01-30T16:56:11.315Z,28.50
2019-01-30T16:58:39.762Z,30.72
2019-01-30T17:01:08.434Z,32.65
2019-01-30T17:03:37.017Z,29.92
2019-01-30T17:06:07.624Z,31.05
2019-01-30T17:08:36.352Z,30.43
2019-01-30T17:11:05.292Z,29.75
2019-01-30T17:13:33.815Z,28.05
2019-01-30T17:16:02.243Z,28.10
2019-01-30T17:18:30.700Z,27.15
2019-01-30T17:20:59.451Z,27.62
2019-01-30T17:23:28.063Z,30.20
2019-01-30T17:25:56.715Z,26.52
2019-01-30T17:28:25.203Z,29.15
2019-01-30T17:30:55.218Z,25.23
2019-01-30T17:33:23.662Z,25.45
2019-01-30T17:35:52.288Z,26.27
2019-01-30T17:38:20.857Z,26.60
2019-01-30T17:40:49.303Z,25.60
2019-01-30T17:43:17.791Z,26.90
2019-01-30T17:45:46.316Z,43.02
2019-01-30T17:48:15.633Z,35.08
2019-01-30T17:50:44.086Z,28.27
2019-01-30T17:53:12.682Z,26.73
2019-01-30T17:55:41.368Z,27.52
2019-01-30T17:58:10.560Z,27.30
2019-01-30T18:00:42.133Z,25.17
2019-01-30T18:03:10.786Z,29.12
2019-01-30T18:05:39.230Z,30.23
2019-01-30T18:08:07.714Z,29.32
2019-01-30T18:10:36.168Z,28.30
2019-01-30T18:13:04.716Z,27.93
2019-01-30T18:15:33.197Z,27.77
2019-01-30T18:18:01.650Z,28.07
2019-01-30T18:20:30.090Z,30.57
2019-01-30T18:22:58.578Z,28.10
2019-01-30T18:25:27.027Z,28.00
2019-01-30T18:27:55.502Z,28.98
2019-01-30T18:30:24.370Z,25.02
2019-01-30T18:32:53.117Z,27.15
2019-01-30T18:35:21.566Z,27.05
2019-01-30T18:37:50.138Z,27.22
2019-01-30T18:40:22.776Z,29.32
2019-01-30T18:42:51.218Z,27.30
2019-01-30T18:45:21.183Z,29.30
2019-01-30T18:47:49.628Z,28.40
2019-01-30T18:50:19.179Z,27.65
2019-01-30T18:52:47.672Z,24.47
2019-01-30T18:55:16.115Z,24.52
2019-01-30T18:57:44.560Z,26.93
2019-01-30T19:00:14.511Z,25.77
2019-01-30T19:02:42.963Z,26.23
2019-01-30T19:05:12.511Z,24.80
2019-01-30T19:07:40.994Z,25.50
2019-01-30T19:10:11.156Z,26.27
2019-01-30T19:12:39.598Z,26.10
2019-01-30T19:15:15.445Z,25.82
2019-01-30T19:17:43.882Z,26.75
2019-01-30T19:20:14.147Z,27.65
2019-01-30T19:22:42.632Z,27.95
2019-01-30T19:25:11.080Z,25.80
2019-01-30T19:27:39.542Z,25.05
2019-01-30T19:30:09.500Z,25.10
2019-01-30T19:32:37.946Z,27.02
2019-01-30T19:35:07.085Z,26.02
2019-01-30T19:37:35.576Z,25.55
2019-01-30T19:40:05.034Z,25.60
2019-01-30T19:42:33.474Z,23.55
2019-01-30T19:45:01.978Z,25.57
2019-01-30T19:47:30.414Z,25.40
2019-01-30T19:49:58.860Z,24.05
2019-01-30T19:52:27.351Z,25.55
2019-01-30T19:54:55.826Z,24.10
2019-01-30T19:57:24.266Z,25.57
2019-01-30T19:59:52.767Z,30.35
2019-01-30T20:02:21.215Z,27.73
2019-01-30T20:04:49.659Z,25.17
2019-01-30T20:07:18.162Z,23.40
2019-01-30T20:09:46.628Z,25.65
2019-01-30T20:12:15.077Z,26.37
2019-01-30T20:14:43.564Z,27.73
2019-01-30T20:17:12.010Z,30.37
2019-01-30T20:19:40.464Z,26.35
2019-01-30T20:22:08.951Z,25.60
2019-01-30T20:24:37.390Z,27.98
2019-01-30T20:27:05.849Z,26.05
2019-01-30T20:29:34.347Z,25.43
2019-01-30T20:32:02.800Z,25.20
2019-01-30T20:34:31.291Z,28.85
2019-01-30T20:36:59.877Z,27.15
2019-01-30T20:39:28.324Z,26.95
2019-01-30T20:41:56.767Z,28.45
2019-01-30T20:44:25.468Z,25.27
2019-01-30T20:46:53.957Z,29.55
2019-01-30T20:49:22.403Z,28.38
2019-01-30T20:51:50.959Z,28.73
2019-01-30T20:54:19.643Z,28.70
2019-01-30T20:56:48.139Z,28.17
2019-01-30T20:59:16.647Z,26.95
2019-01-30T21:01:45.082Z,28.62
2019-01-30T21:04:13.646Z,27.40
2019-01-30T21:06:42.242Z,27.58
2019-01-30T21:09:11.074Z,24.92
2019-01-30T21:11:39.528Z,23.30
2019-01-30T21:14:08.843Z,22.32
2019-01-30T21:16:37.505Z,24.02
2019-01-30T21:19:05.971Z,25.25
2019-01-30T21:21:34.488Z,27.98
2019-01-30T21:24:03.789Z,25.32
2019-01-30T21:26:32.474Z,23.52
2019-01-30T21:29:00.986Z,27.17
2019-01-30T21:31:29.538Z,25.40
2019-01-30T21:33:58.007Z,24.15
2019-01-30T21:36:26.526Z,24.65
2019-01-30T21:38:55.087Z,26.05
2019-01-30T21:41:23.565Z,24.47
2019-01-30T21:43:52.123Z,27.15
2019-01-30T21:46:20.576Z,26.50
2019-01-30T21:48:49.112Z,25.10
2019-01-30T21:51:17.555Z,25.40
2019-01-30T21:53:46.006Z,26.40
2019-01-30T21:56:14.463Z,25.45
2019-01-30T21:58:42.976Z,26.45
2019-01-30T22:01:11.420Z,25.02
2019-01-30T22:03:39.877Z,25.10
2019-01-30T22:06:08.383Z,24.77
2019-01-30T22:08:37.266Z,24.35
2019-01-30T22:11:06.156Z,25.25
2019-01-30T22:13:35.152Z,23.77
2019-01-30T22:16:04.904Z,23.42
2019-01-30T22:18:33.764Z,24.75
2019-01-30T22:21:02.743Z,25.43
2019-01-30T22:23:31.634Z,25.90
2019-01-30T22:26:00.525Z,26.77
2019-01-30T22:28:29.455Z,24.30
2019-01-30T22:30:58.409Z,26.05
2019-01-30T22:33:27.299Z,25.52
2019-01-30T22:35:56.143Z,24.98
2019-01-30T22:38:25.080Z,24.25
2019-01-30T22:40:53.970Z,24.47
2019-01-30T22:43:22.862Z,26.42
2019-01-30T22:45:51.742Z,25.65
2019-01-30T22:48:20.645Z,26.60
2019-01-30T22:50:49.534Z,28.12
2019-01-30T22:53:18.466Z,28.15
2019-01-30T22:55:47.417Z,25.32
2019-01-30T22:58:16.412Z,25.57
2019-01-30T23:01:15.612Z,26.95
2019-01-30T23:04:13.381Z,27.22
2019-01-30T23:06:47.803Z,26.12
2019-01-30T23:09:31.458Z,23.77
2019-01-30T23:12:32.481Z,23.98
2019-01-30T23:15:19.202Z,22.98
2019-01-30T23:17:49.209Z,24.25
2019-01-30T23:20:19.115Z,21.00
2019-01-30T23:22:49.057Z,22.90
2019-01-30T23:25:21.694Z,24.18
2019-01-30T23:27:51.733Z,23.42
2019-01-30T23:30:27.529Z,21.30
2019-01-30T23:33:03.575Z,23.22
2019-01-30T23:35:36.504Z,21.45
2019-01-30T23:38:06.462Z,22.00
2019-01-30T23:40:53.357Z,23.35
2019-01-30T23:43:35.424Z,23.87
2019-01-30T23:46:17.660Z,23.92
2019-01-30T23:48:53.597Z,22.02
2019-01-30T23:51:26.456Z,23.20
2019-01-30T23:53:56.380Z,26.60
2019-01-30T23:56:41.588Z,28.00
2019-01-30T23:59:14.754Z,27.32
